Time;durP1;ratioP1;P1;durP2;ratioP2;P2;SDS_P1;SDS_P2;PMS_P1;PMS_P2;Temp;Humidity;BMP_temperature;BMP_pressure;BME280_temperature;BME280_humidity;BME280_pressure;Samples;Min_cycle;Max_cycle;Signal;HPM_P1;HPM_P2
2024/04/19 00:00:56;;;;;;;1.87;1.70;;;;;;;7.91;66.88;98973.78;5460708;26;41668;-75
2024/04/19 00:03:22;;;;;;;3.07;1.50;;;;;;;7.92;67.07;98985.19;5493191;26;42026;-75
2024/04/19 00:05:54;;;;;;;2.37;1.80;;;;;;;7.95;67.48;98985.03;5493014;26;40077;-74
2024/04/19 00:08:33;;;;;;;2.63;1.50;;;;;;;7.93;67.42;98986.91;5493078;26;41630;-74
2024/04/19 00:11:02;;;;;;;1.50;1.40;;;;;;;7.91;67.05;98986.97;5491047;26;41648;-74
2024/04/19 00:13:29;;;;;;;1.43;1.27;;;;;;;7.84;67.33;98971.53;5492909;26;42300;-73
2024/04/19 00:15:58;;;;;;;1.20;1.10;;;;;;;7.83;67.13;98978.59;5492680;26;40152;-74
2024/04/19 00:18:25;;;;;;;3.63;1.40;;;;;;;7.83;67.23;98981.25;5492805;26;41449;-73
2024/04/19 00:20:57;;;;;;;2.50;1.50;;;;;;;7.79;67.48;98970.94;5492824;26;42849;-74
2024/04/19 00:23:24;;;;;;;2.03;1.63;;;;;;;7.69;67.47;98952.06;5491241;26;41018;-74
2024/04/19 00:25:54;;;;;;;3.80;1.67;;;;;;;7.57;67.40;98932.44;5491315;26;41030;-74
2024/04/19 00:28:36;;;;;;;1.30;1.20;;;;;;;7.70;67.32;98955.56;5491196;26;42849;-74
2024/04/19 00:31:05;;;;;;;2.73;1.40;;;;;;;7.69;67.08;98956.47;5490335;26;42795;-73
2024/04/19 00:33:31;;;;;;;2.80;1.43;;;;;;;7.69;67.10;98964.38;5492766;26;42151;-74
2024/04/19 00:36:03;;;;;;;2.00;1.70;;;;;;;7.65;67.05;98949.66;5490919;26;40210;-74
2024/04/19 00:38:30;;;;;;;3.50;1.57;;;;;;;7.62;67.30;98948.03;5492738;26;41888;-74
2024/04/19 00:40:59;;;;;;;2.10;1.40;;;;;;;7.65;67.48;98952.31;5492350;26;44167;-74
2024/04/19 00:43:25;;;;;;;2.10;1.90;;;;;;;7.64;67.10;98951.44;5490636;26;40787;-73
2024/04/19 00:45:54;;;;;;;3.17;1.50;;;;;;;7.52;67.31;98931.81;5492406;26;40835;-74
2024/04/19 00:48:22;;;;;;;1.70;1.50;;;;;;;7.61;67.38;98956.88;5492612;26;42791;-73
2024/04/19 00:50:56;;;;;;;3.27;2.00;;;;;;;7.58;67.45;98954.38;5460119;26;41572;-74
2024/04/19 00:53:28;;;;;;;2.17;1.70;;;;;;;7.54;67.67;98943.13;5460223;26;41248;-74
2024/04/19 00:55:59;;;;;;;1.57;1.40;;;;;;;7.40;67.46;98916.63;5490547;26;41040;-73
2024/04/19 00:58:27;;;;;;;1.97;1.63;;;;;;;7.53;67.59;98933.53;5492421;26;42945;-73
2024/04/19 01:00:58;;;;;;;2.63;1.27;;;;;;;7.65;67.49;98936.50;5490012;26;43896;-73
2024/04/19 01:03:24;;;;;;;2.03;1.60;;;;;;;7.67;67.04;98942.50;5492429;26;42832;-74
2024/04/19 01:05:54;;;;;;;5.27;1.83;;;;;;;7.63;67.30;98930.44;5492222;26;41126;-74
2024/04/19 01:08:30;;;;;;;2.47;1.37;;;;;;;7.72;67.23;98938.75;5490287;26;40479;-74
2024/04/19 01:10:59;;;;;;;2.43;1.57;;;;;;;7.74;67.19;98933.38;5491929;26;43479;-73
2024/04/19 01:13:26;;;;;;;1.83;1.70;;;;;;;7.78;67.32;98932.31;5490345;26;42383;-75
2024/04/19 01:15:55;;;;;;;2.83;1.70;;;;;;;7.80;66.94;98926.00;5490202;26;40032;-74
2024/04/19 01:18:22;;;;;;;4.33;1.87;;;;;;;7.66;66.72;98902.16;5492032;26;42534;-74
2024/04/19 01:20:51;;;;;;;3.03;1.90;;;;;;;7.86;66.47;98932.78;5490082;26;43486;-74
2024/04/19 01:23:19;;;;;;;2.10;1.60;;;;;;;7.84;66.13;98918.81;5490176;26;42104;-74
2024/04/19 01:25:51;;;;;;;1.60;1.50;;;;;;;7.94;66.15;98933.22;5490142;26;39823;-75
2024/04/19 01:28:20;;;;;;;2.70;1.60;;;;;;;7.96;66.19;98927.88;5491979;26;43310;-74
2024/04/19 01:30:50;;;;;;;1.70;1.60;;;;;;;7.84;66.24;98910.91;5491435;26;42868;-73
2024/04/19 01:33:16;;;;;;;2.43;1.50;;;;;;;7.98;66.27;98924.25;5489532;26;43393;-74
2024/04/19 01:35:45;;;;;;;1.50;1.40;;;;;;;7.91;66.24;98907.03;5490380;26;41037;-74
2024/04/19 01:38:11;;;;;;;1.97;1.60;;;;;;;7.90;66.44;98902.69;5490089;26;42625;-74
2024/04/19 01:40:40;;;;;;;1.57;1.47;;;;;;;7.94;66.17;98912.13;5489985;26;42860;-73
2024/04/19 01:43:07;;;;;;;1.57;1.47;;;;;;;7.96;66.60;98915.56;5489933;26;41520;-73
2024/04/19 01:45:39;;;;;;;2.63;1.40;;;;;;;7.97;66.48;98909.34;5492872;26;39637;-75
2024/04/19 01:48:06;;;;;;;1.50;1.40;;;;;;;7.85;66.05;98891.53;5493047;26;41686;-75
2024/04/19 01:50:35;;;;;;;1.30;1.20;;;;;;;7.95;66.44;98903.31;5492825;26;44599;-74
2024/04/19 01:53:02;;;;;;;1.97;1.63;;;;;;;7.88;66.10;98886.09;5491633;26;40708;-73
2024/04/19 01:55:32;;;;;;;1.50;1.40;;;;;;;7.95;66.43;98898.03;5492765;26;39241;-74
2024/04/19 01:57:58;;;;;;;2.23;1.50;;;;;;;7.95;66.13;98892.75;5494124;26;41513;-74
2024/04/19 02:00:27;;;;;;;2.57;1.37;;;;;;;7.86;66.00;98877.41;5494046;26;42759;-75
2024/04/19 02:02:57;;;;;;;1.77;1.60;;;;;;;7.93;65.86;98881.44;5492612;26;42445;-75
2024/04/19 02:05:26;;;;;;;1.53;1.40;;;;;;;7.89;66.36;98882.53;5461988;26;41886;-74
2024/04/19 02:07:52;;;;;;;1.80;1.50;;;;;;;7.85;65.95;98880.97;5493952;26;42837;-75
2024/04/19 02:10:21;;;;;;;1.40;1.30;;;;;;;7.74;66.48;98856.94;5494421;26;42869;-74
2024/04/19 02:12:48;;;;;;;1.70;1.47;;;;;;;7.76;66.67;98857.72;5494117;26;41946;-74
2024/04/19 02:15:19;;;;;;;1.83;1.60;;;;;;;7.66;67.08;98848.59;5492530;26;41016;-74
2024/04/19 02:17:48;;;;;;;2.07;1.30;;;;;;;7.71;67.21;98854.47;5492547;26;41531;-74
2024/04/19 02:20:20;;;;;;;2.37;1.53;;;;;;;7.63;67.12;98840.81;5461739;26;41563;-75
2024/04/19 02:22:46;;;;;;;1.53;1.40;;;;;;;7.60;67.22;98839.19;5492278;26;40776;-75
2024/04/19 02:25:16;;;;;;;4.40;1.50;;;;;;;7.50;67.36;98822.16;5462008;26;40148;-73
2024/04/19 02:33:15;;;;;;;1.97;1.20;;;;;;;7.55;67.72;98814.84;5461937;26;42265;-77
2024/04/19 02:35:46;;;;;;;2.07;1.60;;;;;;;7.57;67.84;98813.84;5492194;26;39805;-74
2024/04/19 02:38:15;;;;;;;3.10;1.60;;;;;;;7.58;67.72;98810.28;5493896;26;41587;-75
2024/04/19 02:40:44;;;;;;;1.47;1.37;;;;;;;7.47;67.53;98791.53;5492190;26;42652;-74
2024/04/19 02:43:14;;;;;;;1.87;1.20;;;;;;;7.62;67.35;98812.78;5492007;26;42272;-73
2024/04/19 02:46:04;;;;;;;1.00;1.00;;;;;;;7.58;67.36;98801.53;5491895;26;40008;-74
2024/04/19 02:48:33;;;;;;;1.30;1.20;;;;;;;7.63;67.42;98810.06;5493845;26;42877;-75
2024/04/19 02:51:05;;;;;;;2.07;1.47;;;;;;;7.63;67.63;98796.03;5492028;26;42577;-75
2024/04/19 02:53:35;;;;;;;1.30;1.20;;;;;;;7.32;67.08;98746.66;5491949;26;43228;-75
2024/04/19 02:56:05;;;;;;;1.83;1.60;;;;;;;7.58;67.31;98789.19;5493745;26;39955;-74
2024/04/19 02:58:34;;;;;;;3.70;1.83;;;;;;;7.62;67.57;98794.31;5492152;26;41550;-74
2024/04/19 03:01:03;;;;;;;2.90;1.57;;;;;;;7.58;67.03;98789.19;5491738;26;43789;-74
2024/04/19 03:03:32;;;;;;;1.60;1.50;;;;;;;7.64;67.60;98789.81;5491872;26;41356;-74
2024/04/19 03:06:04;;;;;;;1.67;1.47;;;;;;;7.66;66.93;98795.88;5491662;26;38956;-75
2024/04/19 03:08:33;;;;;;;1.40;1.30;;;;;;;7.60;67.53;98757.50;5491996;26;41572;-74
2024/04/19 03:11:05;;;;;;;1.67;1.37;;;;;;;7.60;66.94;98754.00;5493384;26;44090;-74
2024/04/19 03:13:35;;;;;;;1.73;1.63;;;;;;;7.71;67.05;98768.31;5491888;26;42084;-74
2024/04/19 03:16:08;;;;;;;2.80;1.47;;;;;;;7.74;67.05;98756.78;5491643;26;41039;-74
2024/04/19 03:18:43;;;;;;;1.87;1.47;;;;;;;7.74;66.82;98757.63;5491920;26;42612;-74
2024/04/19 03:21:16;;;;;;;1.77;1.43;;;;;;;7.74;66.92;98754.16;5493495;26;42879;-74
2024/04/19 03:23:45;;;;;;;2.03;1.80;;;;;;;7.73;67.24;98755.06;5493732;26;43400;-75
2024/04/19 03:26:14;;;;;;;3.33;1.80;;;;;;;7.70;67.01;98749.97;5493520;26;40204;-75
2024/04/19 03:28:44;;;;;;;2.57;1.87;;;;;;;7.72;66.96;98753.38;5491698;26;43287;-75
2024/04/19 03:31:13;;;;;;;1.93;1.73;;;;;;;7.71;66.95;98746.38;5491392;26;43207;-74
2024/04/19 03:33:42;;;;;;;1.67;1.57;;;;;;;7.74;66.83;98740.97;5491806;26;41983;-74
2024/04/19 03:36:11;;;;;;;2.73;2.03;;;;;;;7.75;66.72;98742.66;5493306;26;40011;-73
2024/04/19 03:38:42;;;;;;;2.27;2.00;;;;;;;7.71;66.81;98730.56;5493109;26;41689;-74
2024/04/19 03:41:12;;;;;;;3.67;1.70;;;;;;;7.71;66.76;98726.16;5491417;26;43636;-74
2024/04/19 03:45:40;;;;;;;1.87;1.70;;;;;;;7.70;66.88;98713.06;5493121;26;43383;-74
2024/04/19 03:46:29;;;;;;;2.77;2.03;;;;;;;7.71;67.12;98697.16;5491422;26;40015;-75
2024/04/19 03:48:58;;;;;;;2.40;2.20;;;;;;;7.77;67.18;98698.63;5493262;26;41482;-74
2024/04/19 03:51:27;;;;;;;1.67;1.57;;;;;;;7.84;67.21;98705.28;5493160;26;42859;-75
2024/04/19 03:53:59;;;;;;;3.43;2.27;;;;;;;7.82;67.22;98694.81;5493312;26;41797;-74
2024/04/19 03:56:28;;;;;;;2.57;2.20;;;;;;;7.79;67.54;98687.06;5491106;26;38720;-75
2024/04/19 03:58:57;;;;;;;3.63;2.37;;;;;;;7.87;67.59;98697.19;5491411;26;40969;-74
2024/04/19 04:01:26;;;;;;;2.70;2.20;;;;;;;7.79;68.21;98686.22;5490972;26;42763;-75
2024/04/19 04:03:57;;;;;;;2.77;2.43;;;;;;;7.78;68.19;98684.53;5491351;26;42630;-74
2024/04/19 04:06:26;;;;;;;2.87;2.50;;;;;;;7.78;68.27;98680.09;5492172;26;42249;-74
2024/04/19 04:08:58;;;;;;;5.93;2.97;;;;;;;7.79;68.54;98675.69;5493093;26;41573;-75
2024/04/19 04:11:27;;;;;;;2.60;2.40;;;;;;;7.79;68.66;98678.31;5493380;26;42962;-74
2024/04/19 04:13:56;;;;;;;3.70;2.90;;;;;;;7.88;68.77;98680.44;5491318;26;42165;-74
2024/04/19 04:16:25;;;;;;;4.23;3.00;;;;;;;7.87;68.89;98670.84;5492814;26;40031;-74
2024/04/19 04:18:54;;;;;;;3.80;2.70;;;;;;;7.89;69.15;98671.59;5460647;26;40398;-74
2024/04/19 04:21:24;;;;;;;4.40;3.00;;;;;;;7.94;69.09;98698.56;5490571;26;41846;-74
2024/04/19 04:23:53;;;;;;;3.00;2.80;;;;;;;7.90;69.35;98689.97;5490250;26;42527;-75
2024/04/19 04:26:25;;;;;;;5.57;3.17;;;;;;;8.03;69.57;98711.25;5458609;26;40338;-74
2024/04/19 04:28:54;;;;;;;3.30;3.00;;;;;;;8.02;69.82;98704.28;5490122;26;41541;-75
2024/04/19 04:31:23;;;;;;;4.10;2.87;;;;;;;8.04;70.16;98707.66;5490049;26;43026;-75
2024/04/19 04:33:52;;;;;;;5.43;3.60;;;;;;;8.03;70.67;98708.63;5491936;26;43296;-74
2024/04/19 04:36:21;;;;;;;4.40;3.40;;;;;;;8.01;71.20;98697.31;5490257;26;41204;-73
2024/04/19 04:38:50;;;;;;;4.00;3.47;;;;;;;7.96;72.63;98670.31;5489940;26;40720;-73
2024/04/19 04:41:20;;;;;;;4.63;2.83;;;;;;;7.91;72.42;98667.09;5459539;26;44168;-75
2024/04/19 04:43:52;;;;;;;6.73;3.33;;;;;;;7.87;73.14;98655.00;5490075;26;43217;-74
2024/04/19 04:46:21;;;;;;;4.40;3.40;;;;;;;7.78;73.87;98640.56;5491444;26;42405;-74
2024/04/19 04:48:50;;;;;;;4.37;2.77;;;;;;;7.79;73.61;98650.13;5492199;26;41402;-74
2024/04/19 04:51:19;;;;;;;3.10;2.80;;;;;;;7.81;73.57;98657.97;5491438;26;42587;-73
2024/04/19 04:53:48;;;;;;;3.70;3.13;;;;;;;7.79;74.25;98644.06;5489917;26;43387;-74
2024/04/19 04:56:17;;;;;;;5.33;3.43;;;;;;;7.91;74.27;98664.47;5489950;26;41043;-74
2024/04/19 04:59:00;;;;;;;2.97;2.70;;;;;;;7.70;74.50;98634.84;5489842;26;40257;-74
2024/04/19 05:01:29;;;;;;;4.10;3.60;;;;;;;7.70;74.64;98639.25;5491449;26;43365;-74
2024/04/19 05:03:59;;;;;;;5.20;3.57;;;;;;;7.85;75.45;98662.16;5491701;26;42077;-74
2024/04/19 05:06:28;;;;;;;5.10;3.70;;;;;;;7.48;76.17;98603.53;5489785;26;38349;-74
2024/04/19 05:08:57;;;;;;;3.47;3.03;;;;;;;7.80;76.28;98637.81;5489790;26;40620;-74
2024/04/19 05:11:26;;;;;;;4.57;3.63;;;;;;;7.80;76.66;98635.19;5459148;26;43755;-74
2024/04/19 05:13:57;;;;;;;5.00;3.10;;;;;;;7.83;76.71;98635.03;5491352;26;42346;-74
2024/04/19 05:16:26;;;;;;;5.00;3.47;;;;;;;7.86;75.97;98630.44;5490293;26;41166;-74
2024/04/19 05:18:56;;;;;;;7.83;3.53;;;;;;;7.82;76.54;98613.06;5490169;26;41621;-74
2024/04/19 05:21:25;;;;;;;4.10;3.50;;;;;;;7.90;76.11;98631.13;5491098;26;44000;-74
2024/04/19 05:23:54;;;;;;;5.67;3.23;;;;;;;7.93;76.47;98623.03;5489357;26;43039;-75
2024/04/19 05:26:23;;;;;;;4.50;3.03;;;;;;;7.92;76.21;98614.25;5489547;26;40020;-74
2024/04/19 05:28:52;;;;;;;5.93;3.87;;;;;;;7.93;75.98;98605.41;5489277;26;42871;-74
2024/04/19 05:31:24;;;;;;;5.07;3.80;;;;;;;7.99;75.75;98614.78;5490382;26;44045;-74
2024/04/19 05:33:53;;;;;;;4.50;2.90;;;;;;;8.03;76.22;98611.06;5489313;26;43239;-75
2024/04/19 05:36:23;;;;;;;4.63;4.00;;;;;;;8.12;76.67;98618.44;5489023;26;40295;-75
2024/04/19 05:38:52;;;;;;;4.90;3.73;;;;;;;8.14;76.25;98613.09;5490976;26;41748;-75
2024/04/19 05:41:21;;;;;;;5.13;3.93;;;;;;;8.17;76.57;98612.88;5488785;26;41910;-74
2024/04/19 05:43:50;;;;;;;4.10;3.70;;;;;;;8.21;76.02;98615.28;5488694;26;43595;-74
2024/04/19 05:46:19;;;;;;;4.23;3.63;;;;;;;8.22;76.14;98603.78;5490429;26;41138;-75
2024/04/19 05:48:51;;;;;;;3.83;3.43;;;;;;;8.32;75.87;98600.66;5490697;26;42654;-74
2024/04/19 05:51:20;;;;;;;6.47;3.60;;;;;;;8.29;76.22;98577.91;5488451;26;41328;-74
2024/04/19 05:53:49;;;;;;;3.50;3.20;;;;;;;8.43;75.35;98604.38;5486635;26;42432;-75
2024/04/19 05:56:18;;;;;;;4.17;3.23;;;;;;;8.44;74.88;98592.03;5488080;26;38476;-74
2024/04/19 05:58:48;;;;;;;4.43;3.37;;;;;;;8.42;74.57;98572.78;5457611;26;42054;-76
2024/04/19 06:01:17;;;;;;;3.53;3.23;;;;;;;8.59;74.60;98585.84;5488684;26;43745;-76
2024/04/19 06:03:46;;;;;;;3.60;3.30;;;;;;;8.73;74.28;98587.69;5488333;26;42110;-75
2024/04/19 06:06:18;;;;;;;4.20;3.17;;;;;;;8.76;73.65;98596.28;5467047;26;41047;-77
2024/04/19 06:08:47;;;;;;;6.80;3.30;;;;;;;8.78;73.70;98601.47;5451572;26;42917;-76
2024/04/19 06:11:16;;;;;;;3.53;3.23;;;;;;;8.76;72.19;98606.84;5487300;26;42943;-77
2024/04/19 06:13:47;;;;;;;4.47;3.50;;;;;;;8.69;71.92;98583.53;5489692;26;42598;-76
2024/04/19 06:16:16;;;;;;;4.30;3.53;;;;;;;8.74;72.32;98589.38;5457075;26;38732;-75
2024/04/19 06:18:45;;;;;;;3.73;3.20;;;;;;;8.71;72.82;98577.22;5489691;26;42716;-76
2024/04/19 06:21:14;;;;;;;4.87;3.23;;;;;;;8.61;73.38;98549.66;5457011;26;43015;-77
2024/04/19 06:23:46;;;;;;;3.60;3.30;;;;;;;8.83;73.08;98587.06;5457607;26;42901;-76
2024/04/19 06:26:15;;;;;;;3.27;3.03;;;;;;;8.84;72.76;98578.19;5426980;26;38889;-77
2024/04/19 06:28:45;;;;;;;3.93;3.63;;;;;;;8.75;73.46;98572.63;5452898;26;42814;-78
2024/04/19 06:31:15;;;;;;;3.87;3.53;;;;;;;8.65;73.42;98567.03;5483847;26;42771;-77
2024/04/19 06:33:44;;;;;;;3.70;3.40;;;;;;;8.64;73.71;98576.75;5493260;26;42613;-76
2024/04/19 06:36:13;;;;;;;4.73;3.33;;;;;;;8.68;75.09;98548.34;5492589;26;41119;-78
2024/04/19 06:38:42;;;;;;;3.47;2.93;;;;;;;8.69;74.19;98555.34;5461343;26;40391;-76
2024/04/19 06:41:14;;;;;;;3.77;3.47;;;;;;;8.73;75.30;98542.81;5460337;26;41829;-75
2024/04/19 06:43:43;;;;;;;4.00;3.47;;;;;;;8.61;74.78;98533.84;5491806;26;43148;-78
2024/04/19 06:46:13;;;;;;;4.93;3.20;;;;;;;8.52;74.94;98529.13;5491063;26;40020;-76
2024/04/19 06:48:42;;;;;;;4.90;3.40;;;;;;;8.50;74.95;98526.56;5460780;26;40777;-75
2024/04/19 06:51:11;;;;;;;3.83;3.27;;;;;;;8.48;75.38;98522.31;5490409;26;42615;-75
2024/04/19 06:53:40;;;;;;;3.77;3.20;;;;;;;8.33;75.64;98496.81;5491254;26;42253;-75
2024/04/19 06:56:09;;;;;;;3.27;2.53;;;;;;;8.48;75.72;98530.22;5490969;26;40264;-78
2024/04/19 06:58:47;;;;;;;3.47;3.17;;;;;;;8.51;75.90;98527.41;5492975;26;42765;-77
2024/04/19 07:01:16;;;;;;;5.70;3.43;;;;;;;8.50;76.81;98518.66;5492468;26;43454;-77
2024/04/19 07:03:46;;;;;;;3.50;3.20;;;;;;;8.43;76.95;98498.81;5491494;26;42021;-75
2024/04/19 07:06:16;;;;;;;3.67;3.00;;;;;;;8.44;77.35;98502.31;5480112;26;38871;-75
2024/04/19 07:08:43;;;;;;;3.20;2.90;;;;;;;8.42;77.75;98501.53;5456175;26;42703;-75
2024/04/19 07:11:12;;;;;;;3.00;2.70;;;;;;;8.26;77.75;98486.63;5453637;26;44209;-77
2024/04/19 07:13:46;;;;;;;3.73;3.17;;;;;;;8.12;78.09;98467.25;5454825;26;41131;-78
2024/04/19 07:16:15;;;;;;;3.27;2.97;;;;;;;8.36;78.42;98494.00;5461655;26;40495;-78
2024/04/19 07:18:48;;;;;;;4.33;3.00;;;;;;;8.40;78.08;98493.75;5491731;26;42792;-78
2024/04/19 07:21:17;;;;;;;3.97;2.67;;;;;;;8.22;77.32;98482.44;5489724;26;44323;-78
2024/04/19 07:23:46;;;;;;;3.27;2.97;;;;;;;8.25;77.90;98482.28;5454726;26;43066;-76
2024/04/19 07:26:15;;;;;;;5.13;3.47;;;;;;;8.35;78.04;98479.13;5424894;26;39613;-78
2024/04/19 07:28:47;;;;;;;3.17;2.80;;;;;;;8.27;78.77;98448.75;5493516;26;41769;-78
2024/04/19 07:31:16;;;;;;;5.10;3.27;;;;;;;8.29;79.17;98452.13;5492559;26;44024;-76
2024/04/19 07:33:45;;;;;;;2.80;2.50;;;;;;;8.16;79.37;98437.97;5492454;26;42175;-77
2024/04/19 07:36:14;;;;;;;3.40;2.73;;;;;;;8.20;78.66;98449.19;5492979;26;40030;-77
2024/04/19 07:38:44;;;;;;;4.17;2.77;;;;;;;8.29;78.67;98460.03;5457957;26;41768;-77
2024/04/19 07:41:14;;;;;;;3.87;3.17;;;;;;;8.23;79.30;98460.41;5452866;26;43819;-77
2024/04/19 07:43:40;;;;;;;3.03;2.77;;;;;;;8.24;79.28;98443.66;5485267;26;42191;-77
2024/04/19 07:46:12;;;;;;;2.87;2.67;;;;;;;8.26;79.24;98439.13;5492126;26;41256;-74
2024/04/19 07:48:42;;;;;;;3.17;2.87;;;;;;;8.35;79.31;98431.63;5489994;26;41865;-75
2024/04/19 07:51:11;;;;;;;3.00;2.70;;;;;;;8.34;79.11;98419.38;5491945;26;43231;-75
2024/04/19 07:53:41;;;;;;;3.07;2.80;;;;;;;8.39;78.70;98438.44;5469118;26;20283;-75
2024/04/19 07:56:10;;;;;;;3.30;2.43;;;;;;;8.39;78.41;98433.16;5454347;26;41719;-77
2024/04/19 07:58:39;;;;;;;3.30;2.77;;;;;;;8.42;78.90;98422.38;5475289;26;41636;-77
2024/04/19 08:01:08;;;;;;;3.10;2.80;;;;;;;8.44;79.46;98421.38;5491852;26;42526;-76
2024/04/19 08:03:41;;;;;;;3.10;2.77;;;;;;;8.51;78.97;98413.94;5490074;26;41314;-76
2024/04/19 08:06:10;;;;;;;3.40;2.73;;;;;;;8.42;78.86;98403.91;5492547;26;41130;-79
2024/04/19 08:08:40;;;;;;;2.83;2.60;;;;;;;8.28;79.14;98376.56;5490669;26;42924;-77
2024/04/19 08:11:09;;;;;;;3.93;2.47;;;;;;;8.40;79.47;98385.56;5490440;26;43185;-77
2024/04/19 08:13:40;;;;;;;2.63;2.40;;;;;;;8.55;78.99;98386.41;5459916;26;40864;-78
2024/04/19 08:16:09;;;;;;;2.90;2.47;;;;;;;8.72;78.89;98383.56;5459701;26;39949;-78
2024/04/19 08:18:41;;;;;;;2.83;2.30;;;;;;;8.89;78.85;98393.94;5460055;26;41798;-77
2024/04/19 08:21:10;;;;;;;3.33;2.70;;;;;;;8.88;77.65;98400.16;5492144;26;44044;-77
2024/04/19 08:23:39;;;;;;;2.23;1.97;;;;;;;8.79;77.97;98370.81;5492014;26;41928;-76
2024/04/19 08:26:08;;;;;;;2.30;2.10;;;;;;;8.90;77.92;98385.03;5491829;26;40162;-76
2024/04/19 08:28:37;;;;;;;2.53;2.33;;;;;;;8.90;78.74;98365.72;5453340;26;41975;-74
2024/04/19 08:31:06;;;;;;;2.20;2.00;;;;;;;9.07;78.41;98368.13;5423229;26;41531;-75
2024/04/19 08:33:33;;;;;;;2.87;2.00;;;;;;;9.19;78.69;98355.91;5456118;26;42124;-75
2024/04/19 08:36:06;;;;;;;2.37;2.17;;;;;;;9.23;78.35;98357.44;5490285;26;41373;-74
2024/04/19 08:38:36;;;;;;;2.20;2.00;;;;;;;9.29;78.80;98357.00;5491356;26;41352;-75
2024/04/19 08:41:06;;;;;;;1.57;1.40;;;;;;;8.91;76.96;98299.59;5490040;26;43103;-76
2024/04/19 08:43:36;;;;;;;1.77;1.60;;;;;;;9.19;76.58;98340.91;5491830;26;43131;-75
2024/04/19 08:46:07;;;;;;;1.67;1.57;;;;;;;9.34;76.60;98341.72;5455618;26;40483;-74
2024/04/19 08:48:39;;;;;;;1.90;1.63;;;;;;;9.39;75.67;98347.56;5455265;26;41461;-76
2024/04/19 08:51:13;;;;;;;1.63;1.47;;;;;;;9.38;74.64;98340.56;5455614;26;41553;-74
2024/04/19 08:53:43;;;;;;;1.73;1.60;;;;;;;9.37;75.86;98338.88;5490126;26;40957;-74
2024/04/19 08:56:14;;;;;;;1.73;1.63;;;;;;;9.39;75.29;98326.41;5489876;26;40649;-76
2024/04/19 08:58:43;;;;;;;1.50;1.40;;;;;;;9.36;75.01;98331.91;5490308;26;42830;-76
2024/04/19 09:01:13;;;;;;;1.43;1.33;;;;;;;9.41;75.19;98329.78;5428723;26;42946;-75
2024/04/19 09:03:42;;;;;;;1.80;1.40;;;;;;;9.40;75.60;98316.66;5454991;26;42166;-76
2024/04/19 09:06:15;;;;;;;1.60;1.50;;;;;;;9.42;75.95;98318.25;5480169;26;42129;-77
2024/04/19 09:08:44;;;;;;;1.77;1.60;;;;;;;9.34;75.19;98310.00;5459342;26;40183;-76
2024/04/19 09:11:14;;;;;;;1.70;1.60;;;;;;;9.33;75.56;98310.97;5463851;26;42940;-76
2024/04/19 09:13:43;;;;;;;1.60;1.50;;;;;;;9.30;76.17;98313.78;5455019;26;42165;-77
2024/04/19 09:16:12;;;;;;;1.53;1.43;;;;;;;9.15;75.39;98315.63;5474569;26;40309;-77
2024/04/19 09:18:42;;;;;;;2.37;1.30;;;;;;;9.04;76.82;98296.16;5489753;26;41882;-77
2024/04/19 09:21:13;;;;;;;1.57;1.47;;;;;;;9.01;77.00;98302.50;5438993;26;41956;-77
2024/04/19 09:23:42;;;;;;;1.63;1.20;;;;;;;8.87;76.77;98273.50;5453273;26;42407;-77
2024/04/19 09:26:12;;;;;;;1.50;1.37;;;;;;;8.95;76.78;98301.09;5439303;26;40036;-77
2024/04/19 09:28:41;;;;;;;1.57;1.47;;;;;;;8.87;77.58;98271.72;5488988;26;42542;-78
2024/04/19 09:31:11;;;;;;;1.63;1.37;;;;;;;8.88;77.53;98270.78;5490462;26;42969;-76
2024/04/19 09:33:41;;;;;;;1.37;1.27;;;;;;;8.77;78.25;98259.22;5489587;26;41864;-76
2024/04/19 09:36:18;;;;;;;1.60;1.23;;;;;;;8.82;78.14;98265.88;5490791;26;39534;-78
2024/04/19 09:38:48;;;;;;;1.23;1.13;;;;;;;8.79;77.35;98273.13;5491487;26;42802;-78
2024/04/19 09:41:18;;;;;;;2.27;1.47;;;;;;;8.88;78.46;98265.50;5458576;26;42742;-78
2024/04/19 09:43:52;;;;;;;1.93;1.17;;;;;;;8.87;78.24;98241.81;5458571;26;40833;-77
2024/04/19 09:46:26;;;;;;;1.40;1.30;;;;;;;9.00;77.92;98251.47;5481197;26;39899;-77
2024/04/19 09:49:00;;;;;;;5.40;1.90;;;;;;;9.04;78.18;98256.53;5453977;26;41784;-76
2024/04/19 09:51:37;;;;;;;1.37;1.27;;;;;;;9.04;77.73;98261.81;5453768;26;44026;-77
2024/04/19 09:54:09;;;;;;;1.30;1.20;;;;;;;8.96;76.93;98249.97;5452126;26;40713;-75
2024/04/19 09:56:43;;;;;;;1.43;1.30;;;;;;;8.80;78.11;98230.78;5453497;26;40615;-76
2024/04/19 09:59:13;;;;;;;1.80;1.47;;;;;;;8.70;77.70;98236.78;5453657;26;42997;-75
2024/04/19 10:01:43;;;;;;;1.03;1.03;;;;;;;8.58;78.63;98217.31;5452659;26;43781;-78
2024/04/19 10:04:13;;;;;;;1.57;1.10;;;;;;;8.65;78.08;98239.72;5425276;26;41110;-77
2024/04/19 10:06:46;;;;;;;1.33;1.20;;;;;;;8.65;79.67;98227.34;5456825;26;41264;-75
2024/04/19 10:09:19;;;;;;;0.80;0.80;;;;;;;8.72;79.15;98232.25;5455162;26;44007;-75
2024/04/19 10:11:50;;;;;;;1.30;1.20;;;;;;;8.64;79.40;98230.13;5456529;26;42876;-76
2024/04/19 10:14:20;;;;;;;1.07;0.97;;;;;;;8.47;79.07;98193.41;5455423;26;43377;-76
2024/04/19 10:16:49;;;;;;;1.30;1.20;;;;;;;8.47;79.75;98207.44;5425673;26;41657;-75
2024/04/19 10:19:19;;;;;;;1.03;0.93;;;;;;;8.50;79.62;98228.38;5493393;26;42600;-76
2024/04/19 10:21:54;;;;;;;1.10;0.93;;;;;;;8.34;80.76;98203.91;5493441;26;42395;-77
2024/04/19 10:24:24;;;;;;;1.30;1.20;;;;;;;8.33;81.61;98194.28;5425047;26;43457;-77
2024/04/19 10:26:54;;;;;;;0.90;0.90;;;;;;;8.46;81.12;98205.75;5454674;26;38527;-77
2024/04/19 10:29:25;;;;;;;1.50;1.00;;;;;;;8.33;82.37;98180.25;5455037;26;42572;-76
2024/04/19 10:31:55;;;;;;;1.30;1.20;;;;;;;8.36;81.15;98196.75;5454834;26;44035;-76
2024/04/19 10:34:26;;;;;;;1.37;1.00;;;;;;;8.30;81.55;98187.38;5489226;26;43393;-76
2024/04/19 10:36:58;;;;;;;1.10;1.00;;;;;;;8.28;81.90;98176.06;5492890;26;40637;-76
2024/04/19 10:39:27;;;;;;;1.23;1.17;;;;;;;8.24;82.37;98182.50;5491290;26;41904;-76
2024/04/19 10:41:57;;;;;;;1.57;1.10;;;;;;;8.06;82.48;98157.28;5460849;26;41129;-77
2024/04/19 10:44:26;;;;;;;1.53;1.10;;;;;;;7.94;82.50;98147.53;5462394;26;41818;-77
2024/04/19 10:46:55;;;;;;;0.80;0.80;;;;;;;7.93;82.40;98156.38;5453999;26;42507;-77
2024/04/19 10:49:25;;;;;;;0.97;0.97;;;;;;;8.01;83.24;98167.31;5481364;26;41442;-76
2024/04/19 10:51:54;;;;;;;1.17;1.00;;;;;;;8.03;83.59;98157.50;5460160;26;41570;-75
2024/04/19 10:54:27;;;;;;;0.80;0.80;;;;;;;7.71;83.44;98098.03;5469834;26;42194;-76
2024/04/19 10:56:58;;;;;;;0.93;0.90;;;;;;;8.06;83.70;98153.81;5454235;26;40331;-76
2024/04/19 10:59:27;;;;;;;0.90;0.80;;;;;;;8.10;83.41;98152.69;5444899;26;43349;-75
2024/04/19 11:01:59;;;;;;;0.90;0.90;;;;;;;8.06;83.42;98146.75;5460328;26;44708;-76
2024/04/19 11:04:29;;;;;;;0.70;0.70;;;;;;;8.18;83.13;98145.97;5490575;26;44536;-75
2024/04/19 11:06:58;;;;;;;0.97;0.93;;;;;;;8.09;82.82;98125.47;5491034;26;39904;-76
2024/04/19 11:09:30;;;;;;;0.73;0.73;;;;;;;8.09;83.46;98141.28;5490383;26;41712;-77
2024/04/19 11:11:59;;;;;;;0.90;0.73;;;;;;;8.14;83.66;98141.84;5490698;26;42806;-77
2024/04/19 11:14:28;;;;;;;2.03;0.87;;;;;;;8.09;83.11;98135.16;5459250;26;42464;-75
2024/04/19 11:17:03;;;;;;;1.40;0.80;;;;;;;8.04;83.36;98127.53;5459728;26;39891;-75
2024/04/19 11:19:33;;;;;;;0.80;0.70;;;;;;;8.01;83.71;98114.56;5478917;26;41743;-74
2024/04/19 11:22:03;;;;;;;1.10;0.87;;;;;;;8.03;83.01;98119.75;5424008;26;41728;-74
2024/04/19 11:24:36;;;;;;;0.60;0.60;;;;;;;8.05;82.57;98129.22;5463534;26;42034;-74
2024/04/19 11:27:06;;;;;;;0.60;0.60;;;;;;;7.95;82.69;98122.84;5460393;26;38920;-75
2024/04/19 11:29:36;;;;;;;1.17;0.80;;;;;;;7.93;83.49;98108.91;5490504;26;42832;-74
2024/04/19 11:32:08;;;;;;;0.67;0.67;;;;;;;7.93;83.62;98108.91;5490744;26;42863;-74
2024/04/19 11:34:37;;;;;;;1.00;0.90;;;;;;;7.93;83.89;98101.00;5491636;26;42546;-74
2024/04/19 11:37:06;;;;;;;0.73;0.73;;;;;;;7.84;84.30;98072.59;5491934;26;41054;-74
2024/04/19 11:39:38;;;;;;;0.40;0.40;;;;;;;8.09;84.15;98098.25;5490038;26;40819;-75
2024/04/19 11:42:09;;;;;;;0.70;0.70;;;;;;;8.18;83.79;98090.56;5490646;26;42807;-74
2024/04/19 11:44:40;;;;;;;0.50;0.50;;;;;;;8.22;83.83;98094.72;5490246;26;40985;-75
2024/04/19 11:47:09;;;;;;;1.00;0.57;;;;;;;8.15;83.76;98072.34;5492361;26;41052;-74
2024/04/19 11:49:38;;;;;;;0.50;0.50;;;;;;;8.23;84.11;98075.31;5492355;26;42890;-74
2024/04/19 11:52:08;;;;;;;0.50;0.50;;;;;;;8.22;83.99;98073.63;5491831;26;42871;-74
2024/04/19 11:54:40;;;;;;;0.90;0.80;;;;;;;8.24;84.04;98071.72;5492083;26;42985;-75
2024/04/19 11:57:10;;;;;;;0.80;0.60;;;;;;;8.35;83.69;98060.50;5490293;26;41194;-76
2024/04/19 11:59:39;;;;;;;0.83;0.60;;;;;;;8.54;83.55;98078.56;5490821;26;40431;-76